sensor_id;sensor_type;location;lat;lon;timestamp;pressure;altitude;pressure_sealevel;temperature
11792;BMP180;5953;52.372;9.918;2022-11-23T00:01:30;99158.00;;;10.20
11792;BMP180;5953;52.372;9.918;2022-11-23T00:04:00;99152.00;;;10.20
11792;BMP180;5953;52.372;9.918;2022-11-23T00:06:29;99141.00;;;10.20
11792;BMP180;5953;52.372;9.918;2022-11-23T00:08:57;99141.00;;;10.10
11792;BMP180;5953;52.372;9.918;2022-11-23T00:11:26;99149.00;;;10.10
11792;BMP180;5953;52.372;9.918;2022-11-23T00:13:54;99150.00;;;10.10
11792;BMP180;5953;52.372;9.918;2022-11-23T00:16:25;99142.00;;;10.00
11792;BMP180;5953;52.372;9.918;2022-11-23T00:18:54;99151.00;;;10.00
11792;BMP180;5953;52.372;9.918;2022-11-23T00:21:24;99151.00;;;10.00
11792;BMP180;5953;52.372;9.918;2022-11-23T00:23:52;99160.00;;;9.80
11792;BMP180;5953;52.372;9.918;2022-11-23T00:26:20;99150.00;;;9.60
11792;BMP180;5953;52.372;9.918;2022-11-23T00:28:48;99154.00;;;9.70
11792;BMP180;5953;52.372;9.918;2022-11-23T00:31:18;99124.00;;;9.50
11792;BMP180;5953;52.372;9.918;2022-11-23T00:33:52;99133.00;;;9.70
11792;BMP180;5953;52.372;9.918;2022-11-23T00:36:22;99156.00;;;9.70
11792;BMP180;5953;52.372;9.918;2022-11-23T00:38:50;99166.00;;;9.60
11792;BMP180;5953;52.372;9.918;2022-11-23T00:41:21;99168.00;;;9.70
11792;BMP180;5953;52.372;9.918;2022-11-23T00:43:49;99147.00;;;9.70
11792;BMP180;5953;52.372;9.918;2022-11-23T00:46:19;99154.00;;;9.80
11792;BMP180;5953;52.372;9.918;2022-11-23T00:48:49;99147.00;;;9.80
11792;BMP180;5953;52.372;9.918;2022-11-23T00:51:20;99148.00;;;9.80
11792;BMP180;5953;52.372;9.918;2022-11-23T00:53:48;99164.00;;;9.70
11792;BMP180;5953;52.372;9.918;2022-11-23T00:56:17;99150.00;;;9.70
11792;BMP180;5953;52.372;9.918;2022-11-23T00:58:47;99157.00;;;9.60
11792;BMP180;5953;52.372;9.918;2022-11-23T01:01:15;99128.00;;;9.50
11792;BMP180;5953;52.372;9.918;2022-11-23T01:03:45;99145.00;;;9.40
11792;BMP180;5953;52.372;9.918;2022-11-23T01:06:15;99156.00;;;9.30
11792;BMP180;5953;52.372;9.918;2022-11-23T01:08:49;99145.00;;;9.30
11792;BMP180;5953;52.372;9.918;2022-11-23T01:11:17;99154.00;;;9.10
11792;BMP180;5953;52.372;9.918;2022-11-23T01:13:46;99154.00;;;9.10
11792;BMP180;5953;52.372;9.918;2022-11-23T01:16:16;99157.00;;;9.00
11792;BMP180;5953;52.372;9.918;2022-11-23T01:18:51;99137.00;;;9.10
11792;BMP180;5953;52.372;9.918;2022-11-23T01:21:19;99159.00;;;9.00
11792;BMP180;5953;52.372;9.918;2022-11-23T01:23:48;99148.00;;;8.90
11792;BMP180;5953;52.372;9.918;2022-11-23T01:26:16;99154.00;;;8.80
11792;BMP180;5953;52.372;9.918;2022-11-23T01:28:44;99154.00;;;8.80
11792;BMP180;5953;52.372;9.918;2022-11-23T01:31:14;99139.00;;;8.90
11792;BMP180;5953;52.372;9.918;2022-11-23T01:33:42;99151.00;;;8.90
11792;BMP180;5953;52.372;9.918;2022-11-23T01:36:11;99133.00;;;8.70
11792;BMP180;5953;52.372;9.918;2022-11-23T01:38:40;99139.00;;;8.60
11792;BMP180;5953;52.372;9.918;2022-11-23T01:41:12;99144.00;;;8.60
11792;BMP180;5953;52.372;9.918;2022-11-23T01:43:41;99152.00;;;8.60
11792;BMP180;5953;52.372;9.918;2022-11-23T01:46:09;99143.00;;;8.70
11792;BMP180;5953;52.372;9.918;2022-11-23T01:48:39;99163.00;;;8.70
11792;BMP180;5953;52.372;9.918;2022-11-23T01:51:12;99142.00;;;8.70
11792;BMP180;5953;52.372;9.918;2022-11-23T01:53:41;99170.00;;;8.90
11792;BMP180;5953;52.372;9.918;2022-11-23T01:56:14;99147.00;;;9.00
11792;BMP180;5953;52.372;9.918;2022-11-23T01:58:46;99163.00;;;9.10
11792;BMP180;5953;52.372;9.918;2022-11-23T02:01:14;99141.00;;;9.20
11792;BMP180;5953;52.372;9.918;2022-11-23T02:03:43;99173.00;;;9.20
11792;BMP180;5953;52.372;9.918;2022-11-23T02:06:16;99131.00;;;9.30
11792;BMP180;5953;52.372;9.918;2022-11-23T02:08:45;99181.00;;;9.20
11792;BMP180;5953;52.372;9.918;2022-11-23T02:11:16;99157.00;;;9.00
11792;BMP180;5953;52.372;9.918;2022-11-23T02:13:45;99173.00;;;8.90
11792;BMP180;5953;52.372;9.918;2022-11-23T02:16:15;99174.00;;;8.90
11792;BMP180;5953;52.372;9.918;2022-11-23T02:18:46;99173.00;;;9.00
11792;BMP180;5953;52.372;9.918;2022-11-23T02:21:15;99157.00;;;9.10
11792;BMP180;5953;52.372;9.918;2022-11-23T02:23:54;99176.00;;;9.00
11792;BMP180;5953;52.372;9.918;2022-11-23T02:26:27;99163.00;;;9.00
11792;BMP180;5953;52.372;9.918;2022-11-23T02:28:58;99173.00;;;9.00
11792;BMP180;5953;52.372;9.918;2022-11-23T02:31:27;99177.00;;;8.90
11792;BMP180;5953;52.372;9.918;2022-11-23T02:33:55;99174.00;;;9.10
11792;BMP180;5953;52.372;9.918;2022-11-23T02:36:33;99164.00;;;9.20
11792;BMP180;5953;52.372;9.918;2022-11-23T02:39:06;99174.00;;;9.20
11792;BMP180;5953;52.372;9.918;2022-11-23T02:41:37;99162.00;;;9.30
11792;BMP180;5953;52.372;9.918;2022-11-23T02:44:17;99172.00;;;9.30
11792;BMP180;5953;52.372;9.918;2022-11-23T02:46:47;99172.00;;;9.30
11792;BMP180;5953;52.372;9.918;2022-11-23T02:49:15;99168.00;;;9.20
11792;BMP180;5953;52.372;9.918;2022-11-23T02:51:43;99164.00;;;9.30
11792;BMP180;5953;52.372;9.918;2022-11-23T02:54:11;99172.00;;;9.20
11792;BMP180;5953;52.372;9.918;2022-11-23T02:56:40;99182.00;;;9.20
11792;BMP180;5953;52.372;9.918;2022-11-23T02:59:08;99174.00;;;9.20
11792;BMP180;5953;52.372;9.918;2022-11-23T03:01:36;99160.00;;;9.20
11792;BMP180;5953;52.372;9.918;2022-11-23T03:04:05;99185.00;;;9.20
11792;BMP180;5953;52.372;9.918;2022-11-23T03:06:33;99173.00;;;9.30
11792;BMP180;5953;52.372;9.918;2022-11-23T03:09:01;99174.00;;;9.30
11792;BMP180;5953;52.372;9.918;2022-11-23T03:11:29;99180.00;;;9.40
11792;BMP180;5953;52.372;9.918;2022-11-23T03:13:58;99158.00;;;9.40
11792;BMP180;5953;52.372;9.918;2022-11-23T03:16:26;99169.00;;;9.50
11792;BMP180;5953;52.372;9.918;2022-11-23T03:18:54;99167.00;;;9.50
11792;BMP180;5953;52.372;9.918;2022-11-23T03:21:22;99177.00;;;9.50
11792;BMP180;5953;52.372;9.918;2022-11-23T03:23:50;99167.00;;;9.60
11792;BMP180;5953;52.372;9.918;2022-11-23T03:26:17;99171.00;;;9.60
11792;BMP180;5953;52.372;9.918;2022-11-23T03:28:45;99150.00;;;9.70
11792;BMP180;5953;52.372;9.918;2022-11-23T03:31:14;99170.00;;;9.60
11792;BMP180;5953;52.372;9.918;2022-11-23T03:33:42;99152.00;;;9.70
11792;BMP180;5953;52.372;9.918;2022-11-23T03:36:10;99173.00;;;9.60
11792;BMP180;5953;52.372;9.918;2022-11-23T03:38:38;99156.00;;;9.70
11792;BMP180;5953;52.372;9.918;2022-11-23T03:41:06;99171.00;;;9.80
11792;BMP180;5953;52.372;9.918;2022-11-23T03:43:33;99169.00;;;9.80
11792;BMP180;5953;52.372;9.918;2022-11-23T03:46:01;99174.00;;;9.80
11792;BMP180;5953;52.372;9.918;2022-11-23T03:48:30;99168.00;;;9.90
11792;BMP180;5953;52.372;9.918;2022-11-23T03:50:58;99179.00;;;9.70
11792;BMP180;5953;52.372;9.918;2022-11-23T03:53:26;99172.00;;;9.80
11792;BMP180;5953;52.372;9.918;2022-11-23T03:55:54;99174.00;;;9.90
11792;BMP180;5953;52.372;9.918;2022-11-23T03:58:23;99170.00;;;10.30
11792;BMP180;5953;52.372;9.918;2022-11-23T04:00:50;99186.00;;;10.20
11792;BMP180;5953;52.372;9.918;2022-11-23T04:03:18;99171.00;;;10.10
11792;BMP180;5953;52.372;9.918;2022-11-23T04:05:48;99150.00;;;10.30
11792;BMP180;5953;52.372;9.918;2022-11-23T04:08:15;99165.00;;;10.30
11792;BMP180;5953;52.372;9.918;2022-11-23T04:10:43;99175.00;;;10.40
11792;BMP180;5953;52.372;9.918;2022-11-23T04:13:11;99173.00;;;10.50
11792;BMP180;5953;52.372;9.918;2022-11-23T04:15:39;99164.00;;;10.50
11792;BMP180;5953;52.372;9.918;2022-11-23T04:18:06;99167.00;;;10.40
11792;BMP180;5953;52.372;9.918;2022-11-23T04:20:34;99171.00;;;10.30
11792;BMP180;5953;52.372;9.918;2022-11-23T04:23:04;99164.00;;;10.20
11792;BMP180;5953;52.372;9.918;2022-11-23T04:25:38;99160.00;;;10.20
11792;BMP180;5953;52.372;9.918;2022-11-23T04:28:06;99171.00;;;10.30
11792;BMP180;5953;52.372;9.918;2022-11-23T04:30:34;99171.00;;;10.20
11792;BMP180;5953;52.372;9.918;2022-11-23T04:33:01;99155.00;;;10.20
11792;BMP180;5953;52.372;9.918;2022-11-23T04:35:29;99139.00;;;10.10
11792;BMP180;5953;52.372;9.918;2022-11-23T04:37:57;99171.00;;;10.00
11792;BMP180;5953;52.372;9.918;2022-11-23T04:40:26;99178.00;;;9.90
11792;BMP180;5953;52.372;9.918;2022-11-23T04:42:54;99176.00;;;9.60
11792;BMP180;5953;52.372;9.918;2022-11-23T04:45:27;99173.00;;;9.70
11792;BMP180;5953;52.372;9.918;2022-11-23T04:47:55;99191.00;;;9.70
11792;BMP180;5953;52.372;9.918;2022-11-23T04:50:22;99178.00;;;9.60
11792;BMP180;5953;52.372;9.918;2022-11-23T04:52:50;99188.00;;;9.70
11792;BMP180;5953;52.372;9.918;2022-11-23T04:55:18;99179.00;;;9.60
11792;BMP180;5953;52.372;9.918;2022-11-23T04:57:47;99181.00;;;9.60
11792;BMP180;5953;52.372;9.918;2022-11-23T05:00:16;99180.00;;;9.50
11792;BMP180;5953;52.372;9.918;2022-11-23T05:02:44;99173.00;;;9.50
11792;BMP180;5953;52.372;9.918;2022-11-23T05:05:11;99166.00;;;9.70
11792;BMP180;5953;52.372;9.918;2022-11-23T05:07:39;99180.00;;;9.80
11792;BMP180;5953;52.372;9.918;2022-11-23T05:10:08;99157.00;;;9.80
11792;BMP180;5953;52.372;9.918;2022-11-23T05:12:36;99170.00;;;9.90
11792;BMP180;5953;52.372;9.918;2022-11-23T05:15:05;99184.00;;;9.90
11792;BMP180;5953;52.372;9.918;2022-11-23T05:17:33;99190.00;;;9.70
11792;BMP180;5953;52.372;9.918;2022-11-23T05:20:15;99153.00;;;9.90
11792;BMP180;5953;52.372;9.918;2022-11-23T05:23:30;99192.00;;;10.00
11792;BMP180;5953;52.372;9.918;2022-11-23T05:25:58;99200.00;;;10.10
11792;BMP180;5953;52.372;9.918;2022-11-23T05:28:26;99198.00;;;10.10
11792;BMP180;5953;52.372;9.918;2022-11-23T05:31:11;99189.00;;;10.30
11792;BMP180;5953;52.372;9.918;2022-11-23T05:33:39;99198.00;;;10.20
11792;BMP180;5953;52.372;9.918;2022-11-23T05:36:07;99199.00;;;10.20
11792;BMP180;5953;52.372;9.918;2022-11-23T05:38:35;99200.00;;;10.20
11792;BMP180;5953;52.372;9.918;2022-11-23T05:41:03;99209.00;;;10.00
11792;BMP180;5953;52.372;9.918;2022-11-23T05:43:31;99202.00;;;9.90
11792;BMP180;5953;52.372;9.918;2022-11-23T05:45:59;99202.00;;;9.70
11792;BMP180;5953;52.372;9.918;2022-11-23T05:48:29;99210.00;;;9.80
11792;BMP180;5953;52.372;9.918;2022-11-23T05:50:57;99204.00;;;9.90
11792;BMP180;5953;52.372;9.918;2022-11-23T05:53:31;99204.00;;;9.80
11792;BMP180;5953;52.372;9.918;2022-11-23T05:55:59;99171.00;;;9.90
11792;BMP180;5953;52.372;9.918;2022-11-23T05:58:27;99184.00;;;9.90
11792;BMP180;5953;52.372;9.918;2022-11-23T06:00:56;99211.00;;;10.00
11792;BMP180;5953;52.372;9.918;2022-11-23T06:03:25;99208.00;;;10.10
11792;BMP180;5953;52.372;9.918;2022-11-23T06:05:54;99210.00;;;10.20
11792;BMP180;5953;52.372;9.918;2022-11-23T06:08:21;99207.00;;;10.20
11792;BMP180;5953;52.372;9.918;2022-11-23T06:10:49;99215.00;;;9.90
11792;BMP180;5953;52.372;9.918;2022-11-23T06:13:17;99217.00;;;9.80
11792;BMP180;5953;52.372;9.918;2022-11-23T06:15:45;99184.00;;;9.90
11792;BMP180;5953;52.372;9.918;2022-11-23T06:18:13;99188.00;;;9.80
11792;BMP180;5953;52.372;9.918;2022-11-23T06:20:41;99214.00;;;9.70
11792;BMP180;5953;52.372;9.918;2022-11-23T06:23:10;99211.00;;;9.50
11792;BMP180;5953;52.372;9.918;2022-11-23T06:25:38;99228.00;;;9.20
11792;BMP180;5953;52.372;9.918;2022-11-23T06:28:06;99198.00;;;9.30
11792;BMP180;5953;52.372;9.918;2022-11-23T06:30:34;99225.00;;;9.40
11792;BMP180;5953;52.372;9.918;2022-11-23T06:33:02;99190.00;;;9.50
11792;BMP180;5953;52.372;9.918;2022-11-23T06:35:30;99227.00;;;9.60
11792;BMP180;5953;52.372;9.918;2022-11-23T06:37:58;99231.00;;;9.70
11792;BMP180;5953;52.372;9.918;2022-11-23T06:40:28;99228.00;;;9.80
11792;BMP180;5953;52.372;9.918;2022-11-23T06:42:59;99212.00;;;9.80
11792;BMP180;5953;52.372;9.918;2022-11-23T06:45:27;99231.00;;;9.90
11792;BMP180;5953;52.372;9.918;2022-11-23T06:48:04;99208.00;;;9.80
11792;BMP180;5953;52.372;9.918;2022-11-23T06:50:32;99223.00;;;9.90
11792;BMP180;5953;52.372;9.918;2022-11-23T06:53:00;99233.00;;;9.90
11792;BMP180;5953;52.372;9.918;2022-11-23T06:55:32;99229.00;;;9.90
11792;BMP180;5953;52.372;9.918;2022-11-23T06:58:00;99218.00;;;9.90
11792;BMP180;5953;52.372;9.918;2022-11-23T07:00:38;99191.00;;;9.90
11792;BMP180;5953;52.372;9.918;2022-11-23T07:03:09;99242.00;;;9.90
11792;BMP180;5953;52.372;9.918;2022-11-23T07:05:43;99248.00;;;10.00
11792;BMP180;5953;52.372;9.918;2022-11-23T07:08:14;99244.00;;;9.50
11792;BMP180;5953;52.372;9.918;2022-11-23T07:11:09;99254.00;;;9.60
11792;BMP180;5953;52.372;9.918;2022-11-23T07:13:37;99238.00;;;9.70
11792;BMP180;5953;52.372;9.918;2022-11-23T07:16:05;99209.00;;;9.70
11792;BMP180;5953;52.372;9.918;2022-11-23T07:18:38;99256.00;;;9.60
11792;BMP180;5953;52.372;9.918;2022-11-23T07:21:06;99264.00;;;9.50
11792;BMP180;5953;52.372;9.918;2022-11-23T07:23:33;99265.00;;;9.50
11792;BMP180;5953;52.372;9.918;2022-11-23T07:26:09;99250.00;;;9.40
11792;BMP180;5953;52.372;9.918;2022-11-23T07:28:37;99229.00;;;9.20
11792;BMP180;5953;52.372;9.918;2022-11-23T07:31:05;99263.00;;;9.30
11792;BMP180;5953;52.372;9.918;2022-11-23T07:33:33;99256.00;;;9.10
11792;BMP180;5953;52.372;9.918;2022-11-23T07:36:01;99267.00;;;9.20
11792;BMP180;5953;52.372;9.918;2022-11-23T07:38:29;99265.00;;;9.20
11792;BMP180;5953;52.372;9.918;2022-11-23T07:40:57;99236.00;;;9.40
11792;BMP180;5953;52.372;9.918;2022-11-23T07:43:28;99277.00;;;9.40
11792;BMP180;5953;52.372;9.918;2022-11-23T07:45:56;99231.00;;;9.40
11792;BMP180;5953;52.372;9.918;2022-11-23T07:48:24;99276.00;;;9.40
11792;BMP180;5953;52.372;9.918;2022-11-23T07:51:02;99288.00;;;9.30
11792;BMP180;5953;52.372;9.918;2022-11-23T07:53:30;99254.00;;;9.40
11792;BMP180;5953;52.372;9.918;2022-11-23T07:55:59;99277.00;;;9.50
11792;BMP180;5953;52.372;9.918;2022-11-23T07:58:28;99272.00;;;9.50
11792;BMP180;5953;52.372;9.918;2022-11-23T08:01:18;99293.00;;;9.50
11792;BMP180;5953;52.372;9.918;2022-11-23T08:03:47;99243.00;;;9.30
11792;BMP180;5953;52.372;9.918;2022-11-23T08:06:39;99276.00;;;9.40
11792;BMP180;5953;52.372;9.918;2022-11-23T08:09:12;99289.00;;;9.40
11792;BMP180;5953;52.372;9.918;2022-11-23T08:11:51;99285.00;;;9.40
11792;BMP180;5953;52.372;9.918;2022-11-23T08:14:34;99288.00;;;9.20
11792;BMP180;5953;52.372;9.918;2022-11-23T08:17:09;99275.00;;;9.30
11792;BMP180;5953;52.372;9.918;2022-11-23T08:19:48;99286.00;;;9.40
11792;BMP180;5953;52.372;9.918;2022-11-23T08:22:26;99310.00;;;9.60
11792;BMP180;5953;52.372;9.918;2022-11-23T08:24:54;99281.00;;;9.60
11792;BMP180;5953;52.372;9.918;2022-11-23T08:27:23;99284.00;;;9.70
11792;BMP180;5953;52.372;9.918;2022-11-23T08:29:52;99298.00;;;9.70
11792;BMP180;5953;52.372;9.918;2022-11-23T08:32:25;99298.00;;;9.80
11792;BMP180;5953;52.372;9.918;2022-11-23T08:34:53;99261.00;;;9.80
11792;BMP180;5953;52.372;9.918;2022-11-23T08:37:24;99294.00;;;10.00
11792;BMP180;5953;52.372;9.918;2022-11-23T08:39:51;99287.00;;;10.00
11792;BMP180;5953;52.372;9.918;2022-11-23T08:42:19;99294.00;;;10.10
11792;BMP180;5953;52.372;9.918;2022-11-23T08:44:49;99290.00;;;10.10
11792;BMP180;5953;52.372;9.918;2022-11-23T08:47:19;99263.00;;;10.10
11792;BMP180;5953;52.372;9.918;2022-11-23T08:49:46;99294.00;;;10.10
11792;BMP180;5953;52.372;9.918;2022-11-23T08:52:14;99297.00;;;9.80
11792;BMP180;5953;52.372;9.918;2022-11-23T08:54:42;99261.00;;;10.10
11792;BMP180;5953;52.372;9.918;2022-11-23T08:57:10;99251.00;;;10.30
11792;BMP180;5953;52.372;9.918;2022-11-23T08:59:37;99293.00;;;10.50
11792;BMP180;5953;52.372;9.918;2022-11-23T09:02:05;99277.00;;;10.50
11792;BMP180;5953;52.372;9.918;2022-11-23T09:04:34;99289.00;;;10.70
11792;BMP180;5953;52.372;9.918;2022-11-23T09:07:03;99278.00;;;10.70
11792;BMP180;5953;52.372;9.918;2022-11-23T09:09:31;99296.00;;;10.70
11792;BMP180;5953;52.372;9.918;2022-11-23T09:11:59;99291.00;;;10.80
11792;BMP180;5953;52.372;9.918;2022-11-23T09:14:27;99259.00;;;10.90
11792;BMP180;5953;52.372;9.918;2022-11-23T09:16:56;99307.00;;;10.90
11792;BMP180;5953;52.372;9.918;2022-11-23T09:19:24;99291.00;;;11.10
11792;BMP180;5953;52.372;9.918;2022-11-23T09:21:53;99285.00;;;11.00
11792;BMP180;5953;52.372;9.918;2022-11-23T09:24:20;99312.00;;;11.20
11792;BMP180;5953;52.372;9.918;2022-11-23T09:26:49;99309.00;;;11.30
11792;BMP180;5953;52.372;9.918;2022-11-23T09:29:17;99319.00;;;11.40
11792;BMP180;5953;52.372;9.918;2022-11-23T09:31:45;99311.00;;;11.50
11792;BMP180;5953;52.372;9.918;2022-11-23T09:34:14;99325.00;;;11.40
11792;BMP180;5953;52.372;9.918;2022-11-23T09:36:43;99311.00;;;11.50
11792;BMP180;5953;52.372;9.918;2022-11-23T09:42:44;99308.00;;;11.90
11792;BMP180;5953;52.372;9.918;2022-11-23T09:45:24;99280.00;;;11.90
11792;BMP180;5953;52.372;9.918;2022-11-23T09:48:17;99295.00;;;11.80
11792;BMP180;5953;52.372;9.918;2022-11-23T09:51:00;99316.00;;;12.00
11792;BMP180;5953;52.372;9.918;2022-11-23T09:53:47;99319.00;;;11.90
11792;BMP180;5953;52.372;9.918;2022-11-23T09:56:32;99289.00;;;11.90
11792;BMP180;5953;52.372;9.918;2022-11-23T09:59:09;99322.00;;;12.00
11792;BMP180;5953;52.372;9.918;2022-11-23T10:01:44;99323.00;;;11.90
11792;BMP180;5953;52.372;9.918;2022-11-23T10:04:15;99329.00;;;12.00
11792;BMP180;5953;52.372;9.918;2022-11-23T10:06:44;99314.00;;;11.90
11792;BMP180;5953;52.372;9.918;2022-11-23T10:09:39;99294.00;;;11.90
11792;BMP180;5953;52.372;9.918;2022-11-23T10:12:36;99309.00;;;12.00
11792;BMP180;5953;52.372;9.918;2022-11-23T10:15:27;99287.00;;;12.20
11792;BMP180;5953;52.372;9.918;2022-11-23T10:18:28;99290.00;;;12.30
11792;BMP180;5953;52.372;9.918;2022-11-23T10:21:15;99317.00;;;12.40
11792;BMP180;5953;52.372;9.918;2022-11-23T10:24:01;99332.00;;;12.50
11792;BMP180;5953;52.372;9.918;2022-11-23T10:26:34;99326.00;;;12.40
11792;BMP180;5953;52.372;9.918;2022-11-23T10:29:19;99328.00;;;12.60
11792;BMP180;5953;52.372;9.918;2022-11-23T10:31:51;99331.00;;;12.70
11792;BMP180;5953;52.372;9.918;2022-11-23T10:34:47;99325.00;;;12.80
11792;BMP180;5953;52.372;9.918;2022-11-23T10:37:16;99282.00;;;12.90
11792;BMP180;5953;52.372;9.918;2022-11-23T10:39:44;99284.00;;;12.80
11792;BMP180;5953;52.372;9.918;2022-11-23T10:42:18;99326.00;;;12.80
11792;BMP180;5953;52.372;9.918;2022-11-23T10:44:48;99311.00;;;13.00
11792;BMP180;5953;52.372;9.918;2022-11-23T10:47:47;99344.00;;;13.00
11792;BMP180;5953;52.372;9.918;2022-11-23T10:50:22;99332.00;;;13.10
11792;BMP180;5953;52.372;9.918;2022-11-23T10:53:25;99342.00;;;13.10
11792;BMP180;5953;52.372;9.918;2022-11-23T10:56:11;99341.00;;;13.30
11792;BMP180;5953;52.372;9.918;2022-11-23T10:58:42;99334.00;;;13.30
11792;BMP180;5953;52.372;9.918;2022-11-23T11:01:27;99329.00;;;13.20
11792;BMP180;5953;52.372;9.918;2022-11-23T11:04:09;99342.00;;;13.20
11792;BMP180;5953;52.372;9.918;2022-11-23T11:07:17;99291.00;;;13.40
11792;BMP180;5953;52.372;9.918;2022-11-23T11:09:50;99340.00;;;13.50
11792;BMP180;5953;52.372;9.918;2022-11-23T11:12:33;99334.00;;;13.30
11792;BMP180;5953;52.372;9.918;2022-11-23T11:15:16;99328.00;;;13.50
11792;BMP180;5953;52.372;9.918;2022-11-23T11:17:53;99307.00;;;13.40
11792;BMP180;5953;52.372;9.918;2022-11-23T11:20:34;99316.00;;;13.50
11792;BMP180;5953;52.372;9.918;2022-11-23T11:23:20;99313.00;;;13.60
11792;BMP180;5953;52.372;9.918;2022-11-23T11:25:49;99338.00;;;13.30
11792;BMP180;5953;52.372;9.918;2022-11-23T11:28:21;99328.00;;;13.40
11792;BMP180;5953;52.372;9.918;2022-11-23T11:31:00;99342.00;;;13.50
11792;BMP180;5953;52.372;9.918;2022-11-23T11:33:35;99330.00;;;13.40
11792;BMP180;5953;52.372;9.918;2022-11-23T11:36:07;99330.00;;;13.40
11792;BMP180;5953;52.372;9.918;2022-11-23T11:38:48;99326.00;;;13.40
11792;BMP180;5953;52.372;9.918;2022-11-23T11:41:40;99291.00;;;13.60
11792;BMP180;5953;52.372;9.918;2022-11-23T11:44:16;99323.00;;;13.60
11792;BMP180;5953;52.372;9.918;2022-11-23T11:46:50;99314.00;;;13.70
11792;BMP180;5953;52.372;9.918;2022-11-23T11:49:23;99331.00;;;13.70
11792;BMP180;5953;52.372;9.918;2022-11-23T11:51:57;99298.00;;;13.80
11792;BMP180;5953;52.372;9.918;2022-11-23T11:54:31;99325.00;;;13.90
11792;BMP180;5953;52.372;9.918;2022-11-23T11:57:09;99319.00;;;13.80
11792;BMP180;5953;52.372;9.918;2022-11-23T11:59:40;99330.00;;;13.90
11792;BMP180;5953;52.372;9.918;2022-11-23T12:02:22;99322.00;;;14.10
11792;BMP180;5953;52.372;9.918;2022-11-23T12:05:06;99325.00;;;14.20
11792;BMP180;5953;52.372;9.918;2022-11-23T12:07:42;99297.00;;;14.10
11792;BMP180;5953;52.372;9.918;2022-11-23T12:10:14;99308.00;;;14.30
11792;BMP180;5953;52.372;9.918;2022-11-23T12:12:43;99318.00;;;14.20
11792;BMP180;5953;52.372;9.918;2022-11-23T12:15:17;99306.00;;;14.10
11792;BMP180;5953;52.372;9.918;2022-11-23T12:18:23;99289.00;;;14.10
11792;BMP180;5953;52.372;9.918;2022-11-23T12:21:01;99288.00;;;14.40
11792;BMP180;5953;52.372;9.918;2022-11-23T12:23:41;99290.00;;;14.30
11792;BMP180;5953;52.372;9.918;2022-11-23T12:26:19;99295.00;;;14.10
11792;BMP180;5953;52.372;9.918;2022-11-23T12:29:09;99292.00;;;14.10
11792;BMP180;5953;52.372;9.918;2022-11-23T12:31:44;99290.00;;;13.90
11792;BMP180;5953;52.372;9.918;2022-11-23T12:34:32;99280.00;;;13.70
11792;BMP180;5953;52.372;9.918;2022-11-23T12:37:21;99294.00;;;13.80
11792;BMP180;5953;52.372;9.918;2022-11-23T12:40:06;99283.00;;;13.70
11792;BMP180;5953;52.372;9.918;2022-11-23T12:42:41;99259.00;;;13.60
11792;BMP180;5953;52.372;9.918;2022-11-23T12:45:20;99279.00;;;13.50
11792;BMP180;5953;52.372;9.918;2022-11-23T12:47:59;99287.00;;;13.40
11792;BMP180;5953;52.372;9.918;2022-11-23T12:50:33;99282.00;;;13.80
11792;BMP180;5953;52.372;9.918;2022-11-23T12:53:15;99278.00;;;13.70
11792;BMP180;5953;52.372;9.918;2022-11-23T12:55:57;99277.00;;;13.80
11792;BMP180;5953;52.372;9.918;2022-11-23T12:58:27;99245.00;;;13.90
11792;BMP180;5953;52.372;9.918;2022-11-23T13:00:59;99284.00;;;14.10
11792;BMP180;5953;52.372;9.918;2022-11-23T13:03:53;99289.00;;;14.10
11792;BMP180;5953;52.372;9.918;2022-11-23T13:09:59;99279.00;;;14.20
11792;BMP180;5953;52.372;9.918;2022-11-23T13:12:57;99273.00;;;14.20
11792;BMP180;5953;52.372;9.918;2022-11-23T13:15:43;99265.00;;;14.10
11792;BMP180;5953;52.372;9.918;2022-11-23T13:18:22;99275.00;;;14.20
11792;BMP180;5953;52.372;9.918;2022-11-23T13:21:27;99278.00;;;14.10
11792;BMP180;5953;52.372;9.918;2022-11-23T13:24:01;99259.00;;;14.10
11792;BMP180;5953;52.372;9.918;2022-11-23T13:26:32;99272.00;;;14.20
11792;BMP180;5953;52.372;9.918;2022-11-23T13:32:41;99257.00;;;14.20
11792;BMP180;5953;52.372;9.918;2022-11-23T13:35:53;99258.00;;;14.10
11792;BMP180;5953;52.372;9.918;2022-11-23T13:38:35;99272.00;;;13.90
11792;BMP180;5953;52.372;9.918;2022-11-23T13:44:30;99286.00;;;14.20
11792;BMP180;5953;52.372;9.918;2022-11-23T13:47:01;99235.00;;;14.20
11792;BMP180;5953;52.372;9.918;2022-11-23T13:49:33;99252.00;;;14.10
11792;BMP180;5953;52.372;9.918;2022-11-23T13:52:23;99255.00;;;14.10
11792;BMP180;5953;52.372;9.918;2022-11-23T13:55:16;99255.00;;;14.10
11792;BMP180;5953;52.372;9.918;2022-11-23T14:00:54;99251.00;;;14.10
11792;BMP180;5953;52.372;9.918;2022-11-23T14:03:48;99258.00;;;14.20
11792;BMP180;5953;52.372;9.918;2022-11-23T14:06:22;99251.00;;;14.20
11792;BMP180;5953;52.372;9.918;2022-11-23T14:08:53;99247.00;;;14.20
11792;BMP180;5953;52.372;9.918;2022-11-23T14:11:26;99244.00;;;14.10
11792;BMP180;5953;52.372;9.918;2022-11-23T14:13:58;99252.00;;;13.90
11792;BMP180;5953;52.372;9.918;2022-11-23T14:16:59;99250.00;;;14.00
11792;BMP180;5953;52.372;9.918;2022-11-23T14:19:44;99256.00;;;13.90
11792;BMP180;5953;52.372;9.918;2022-11-23T14:22:21;99239.00;;;14.00
11792;BMP180;5953;52.372;9.918;2022-11-23T14:25:15;99248.00;;;13.80
11792;BMP180;5953;52.372;9.918;2022-11-23T14:27:57;99245.00;;;13.70
11792;BMP180;5953;52.372;9.918;2022-11-23T14:30:38;99245.00;;;13.70
11792;BMP180;5953;52.372;9.918;2022-11-23T14:33:18;99248.00;;;13.50
11792;BMP180;5953;52.372;9.918;2022-11-23T14:35:52;99255.00;;;13.20
11792;BMP180;5953;52.372;9.918;2022-11-23T14:41:19;99257.00;;;13.30
11792;BMP180;5953;52.372;9.918;2022-11-23T14:43:49;99261.00;;;13.30
11792;BMP180;5953;52.372;9.918;2022-11-23T14:46:19;99244.00;;;13.10
11792;BMP180;5953;52.372;9.918;2022-11-23T14:48:50;99245.00;;;13.10
11792;BMP180;5953;52.372;9.918;2022-11-23T14:51:19;99256.00;;;13.20
11792;BMP180;5953;52.372;9.918;2022-11-23T14:53:50;99258.00;;;13.20
11792;BMP180;5953;52.372;9.918;2022-11-23T14:56:22;99265.00;;;13.10
11792;BMP180;5953;52.372;9.918;2022-11-23T14:58:54;99264.00;;;13.00
11792;BMP180;5953;52.372;9.918;2022-11-23T15:01:24;99248.00;;;13.10
11792;BMP180;5953;52.372;9.918;2022-11-23T15:03:59;99261.00;;;13.00
11792;BMP180;5953;52.372;9.918;2022-11-23T15:06:36;99254.00;;;12.90
11792;BMP180;5953;52.372;9.918;2022-11-23T15:09:16;99257.00;;;12.90
11792;BMP180;5953;52.372;9.918;2022-11-23T15:11:50;99275.00;;;13.00
11792;BMP180;5953;52.372;9.918;2022-11-23T15:14:20;99272.00;;;12.90
11792;BMP180;5953;52.372;9.918;2022-11-23T15:16:52;99261.00;;;12.80
11792;BMP180;5953;52.372;9.918;2022-11-23T15:19:26;99271.00;;;12.80
11792;BMP180;5953;52.372;9.918;2022-11-23T15:21:55;99249.00;;;12.80